sensor_id;sensor_type;location;lat;lon;timestamp;pressure;altitude;pressure_sealevel;temperature;humidity
28628;BME280;15815;46.760;19.604;2022-12-18T00:00:47;101708.31;;;-0.92;92.51
28628;BME280;15815;46.760;19.604;2022-12-18T00:03:14;101719.59;;;-0.88;92.59
28628;BME280;15815;46.760;19.604;2022-12-18T00:05:52;101703.09;;;-0.94;92.79
28628;BME280;15815;46.760;19.604;2022-12-18T00:08:18;101718.97;;;-0.80;93.03
28628;BME280;15815;46.760;19.604;2022-12-18T00:10:44;101726.66;;;-0.77;93.09
28628;BME280;15815;46.760;19.604;2022-12-18T00:13:10;101722.25;;;-0.78;92.92
28628;BME280;15815;46.760;19.604;2022-12-18T00:15:38;101715.63;;;-0.77;92.97
28628;BME280;15815;46.760;19.604;2022-12-18T00:18:03;101729.34;;;-0.72;92.87
28628;BME280;15815;46.760;19.604;2022-12-18T00:20:29;101731.81;;;-0.71;92.47
28628;BME280;15815;46.760;19.604;2022-12-18T00:22:57;101721.13;;;-0.77;91.96
28628;BME280;15815;46.760;19.604;2022-12-18T00:25:22;101732.06;;;-0.67;92.23
28628;BME280;15815;46.760;19.604;2022-12-18T00:27:48;101716.44;;;-0.77;92.50
28628;BME280;15815;46.760;19.604;2022-12-18T00:30:13;101727.94;;;-0.70;92.52
28628;BME280;15815;46.760;19.604;2022-12-18T00:32:39;101711.72;;;-0.76;92.69
28628;BME280;15815;46.760;19.604;2022-12-18T00:35:06;101731.00;;;-0.71;92.17
28628;BME280;15815;46.760;19.604;2022-12-18T00:37:33;101741.16;;;-0.67;91.76
28628;BME280;15815;46.760;19.604;2022-12-18T00:40:02;101748.38;;;-0.71;92.27
28628;BME280;15815;46.760;19.604;2022-12-18T00:42:28;101765.41;;;-0.64;92.25
28628;BME280;15815;46.760;19.604;2022-12-18T00:45:12;101763.72;;;-0.59;92.15
28628;BME280;15815;46.760;19.604;2022-12-18T00:47:37;101772.53;;;-0.57;92.09
28628;BME280;15815;46.760;19.604;2022-12-18T00:50:03;101768.13;;;-0.58;91.72
28628;BME280;15815;46.760;19.604;2022-12-18T00:52:28;101788.22;;;-0.53;91.77
28628;BME280;15815;46.760;19.604;2022-12-18T00:54:54;101787.69;;;-0.55;91.64
28628;BME280;15815;46.760;19.604;2022-12-18T00:57:19;101784.91;;;-0.55;91.61
28628;BME280;15815;46.760;19.604;2022-12-18T00:59:44;101791.22;;;-0.49;90.97
28628;BME280;15815;46.760;19.604;2022-12-18T01:02:10;101786.59;;;-0.54;91.07
28628;BME280;15815;46.760;19.604;2022-12-18T01:04:38;101780.56;;;-0.61;91.54
28628;BME280;15815;46.760;19.604;2022-12-18T01:07:03;101804.81;;;-0.53;91.36
28628;BME280;15815;46.760;19.604;2022-12-18T01:09:29;101816.84;;;-0.44;90.78
28628;BME280;15815;46.760;19.604;2022-12-18T01:11:54;101798.91;;;-0.46;90.59
28628;BME280;15815;46.760;19.604;2022-12-18T01:14:20;101805.78;;;-0.44;90.92
28628;BME280;15815;46.760;19.604;2022-12-18T01:16:45;101792.63;;;-0.52;90.98
28628;BME280;15815;46.760;19.604;2022-12-18T01:19:11;101806.69;;;-0.48;90.24
28628;BME280;15815;46.760;19.604;2022-12-18T01:21:36;101804.22;;;-0.50;90.45
28628;BME280;15815;46.760;19.604;2022-12-18T01:24:02;101805.72;;;-0.39;90.60
28628;BME280;15815;46.760;19.604;2022-12-18T01:26:27;101816.19;;;-0.36;89.69
28628;BME280;15815;46.760;19.604;2022-12-18T01:31:28;101812.91;;;-0.38;89.86
28628;BME280;15815;46.760;19.604;2022-12-18T01:33:55;101812.38;;;-0.40;90.33
28628;BME280;15815;46.760;19.604;2022-12-18T01:36:27;101821.94;;;-0.32;90.32
28628;BME280;15815;46.760;19.604;2022-12-18T01:38:53;101817.84;;;-0.35;89.84
28628;BME280;15815;46.760;19.604;2022-12-18T01:41:21;101826.06;;;-0.29;90.03
28628;BME280;15815;46.760;19.604;2022-12-18T01:43:53;101828.81;;;-0.29;89.40
28628;BME280;15815;46.760;19.604;2022-12-18T01:46:21;101820.59;;;-0.35;90.29
28628;BME280;15815;46.760;19.604;2022-12-18T01:48:57;101809.00;;;-0.37;90.08
28628;BME280;15815;46.760;19.604;2022-12-18T01:51:23;101800.78;;;-0.42;89.84
28628;BME280;15815;46.760;19.604;2022-12-18T01:53:49;101827.66;;;-0.23;89.82
28628;BME280;15815;46.760;19.604;2022-12-18T01:56:17;101834.00;;;-0.23;89.80
28628;BME280;15815;46.760;19.604;2022-12-18T01:59:00;101823.81;;;-0.27;90.08
28628;BME280;15815;46.760;19.604;2022-12-18T02:01:29;101837.00;;;-0.19;90.52
28628;BME280;15815;46.760;19.604;2022-12-18T02:03:55;101835.59;;;-0.17;90.50
28628;BME280;15815;46.760;19.604;2022-12-18T02:06:28;101848.59;;;-0.17;89.53
28628;BME280;15815;46.760;19.604;2022-12-18T02:11:53;101865.69;;;-0.15;89.00
28628;BME280;15815;46.760;19.604;2022-12-18T02:14:38;101868.38;;;-0.10;89.41
28628;BME280;15815;46.760;19.604;2022-12-18T02:17:09;101860.63;;;-0.08;89.83
28628;BME280;15815;46.760;19.604;2022-12-18T02:25:21;101862.78;;;-0.05;89.49
28628;BME280;15815;46.760;19.604;2022-12-18T02:27:50;101853.44;;;-0.09;89.97
28628;BME280;15815;46.760;19.604;2022-12-18T02:30:17;101866.91;;;-0.03;89.58
28628;BME280;15815;46.760;19.604;2022-12-18T02:32:50;101872.72;;;-0.04;88.69
28628;BME280;15815;46.760;19.604;2022-12-18T02:35:22;101870.50;;;-0.02;89.84
28628;BME280;15815;46.760;19.604;2022-12-18T02:37:49;101879.88;;;0.02;89.46
28628;BME280;15815;46.760;19.604;2022-12-18T02:40:16;101872.69;;;0.01;89.74
28628;BME280;15815;46.760;19.604;2022-12-18T02:42:42;101881.03;;;-0.04;89.71
28628;BME280;15815;46.760;19.604;2022-12-18T02:45:11;101886.78;;;-0.01;89.29
28628;BME280;15815;46.760;19.604;2022-12-18T02:47:39;101875.19;;;-0.03;89.96
28628;BME280;15815;46.760;19.604;2022-12-18T02:50:24;101887.06;;;-0.02;89.05
28628;BME280;15815;46.760;19.604;2022-12-18T02:53:06;101912.69;;;0.09;89.83
28628;BME280;15815;46.760;19.604;2022-12-18T03:03:41;101912.38;;;0.10;89.63
28628;BME280;15815;46.760;19.604;2022-12-18T03:06:14;101924.19;;;0.16;89.93
28628;BME280;15815;46.760;19.604;2022-12-18T03:08:44;101920.31;;;0.17;90.07
28628;BME280;15815;46.760;19.604;2022-12-18T03:11:12;101916.19;;;0.14;90.19
28628;BME280;15815;46.760;19.604;2022-12-18T03:14:03;101914.56;;;0.13;89.96
28628;BME280;15815;46.760;19.604;2022-12-18T03:16:30;101921.22;;;0.12;90.07
28628;BME280;15815;46.760;19.604;2022-12-18T03:19:06;101922.38;;;0.06;89.43
28628;BME280;15815;46.760;19.604;2022-12-18T03:21:37;101919.09;;;0.04;89.59
28628;BME280;15815;46.760;19.604;2022-12-18T03:24:06;101917.44;;;0.03;89.18
28628;BME280;15815;46.760;19.604;2022-12-18T03:26:33;101907.81;;;-0.23;88.75
28628;BME280;15815;46.760;19.604;2022-12-18T03:29:06;101921.91;;;-0.25;88.89
28628;BME280;15815;46.760;19.604;2022-12-18T03:31:33;101930.50;;;-0.26;89.21
28628;BME280;15815;46.760;19.604;2022-12-18T03:34:01;101944.03;;;-0.25;89.45
28628;BME280;15815;46.760;19.604;2022-12-18T03:36:29;101944.31;;;-0.26;89.67
28628;BME280;15815;46.760;19.604;2022-12-18T03:38:57;101927.94;;;-0.47;89.38
28628;BME280;15815;46.760;19.604;2022-12-18T03:44:02;101959.50;;;-0.24;89.52
28628;BME280;15815;46.760;19.604;2022-12-18T03:46:33;101955.31;;;-0.21;89.75
28628;BME280;15815;46.760;19.604;2022-12-18T03:49:12;101936.34;;;-0.33;90.34
28628;BME280;15815;46.760;19.604;2022-12-18T03:51:59;101950.91;;;-0.22;90.23
28628;BME280;15815;46.760;19.604;2022-12-18T03:54:28;101960.84;;;-0.21;90.51
28628;BME280;15815;46.760;19.604;2022-12-18T03:56:59;101965.31;;;-0.25;90.59
28628;BME280;15815;46.760;19.604;2022-12-18T03:59:30;101958.69;;;-0.29;90.08
28628;BME280;15815;46.760;19.604;2022-12-18T04:01:56;101975.84;;;-0.33;90.44
28628;BME280;15815;46.760;19.604;2022-12-18T04:04:24;101974.25;;;-0.39;90.42
28628;BME280;15815;46.760;19.604;2022-12-18T04:06:50;101966.56;;;-0.42;90.21
28628;BME280;15815;46.760;19.604;2022-12-18T04:09:17;101979.00;;;-0.44;90.16
28628;BME280;15815;46.760;19.604;2022-12-18T04:11:47;101974.06;;;-0.47;90.02
28628;BME280;15815;46.760;19.604;2022-12-18T04:14:12;101989.25;;;-0.45;90.18
28628;BME280;15815;46.760;19.604;2022-12-18T04:16:38;101986.84;;;-0.56;90.52
28628;BME280;15815;46.760;19.604;2022-12-18T04:19:04;101999.28;;;-0.59;90.60
28628;BME280;15815;46.760;19.604;2022-12-18T04:21:30;101986.09;;;-0.67;90.18
28628;BME280;15815;46.760;19.604;2022-12-18T04:23:55;102005.97;;;-0.65;90.64
28628;BME280;15815;46.760;19.604;2022-12-18T04:26:20;102014.78;;;-0.63;90.38
28628;BME280;15815;46.760;19.604;2022-12-18T04:28:46;101998.13;;;-0.82;89.71
28628;BME280;15815;46.760;19.604;2022-12-18T04:31:11;102001.69;;;-0.81;90.51
28628;BME280;15815;46.760;19.604;2022-12-18T04:33:37;102010.50;;;-0.79;90.12
28628;BME280;15815;46.760;19.604;2022-12-18T04:36:03;102013.56;;;-0.86;89.94
28628;BME280;15815;46.760;19.604;2022-12-18T04:38:28;102012.50;;;-0.90;90.22
28628;BME280;15815;46.760;19.604;2022-12-18T04:40:54;102015.84;;;-0.93;90.40
28628;BME280;15815;46.760;19.604;2022-12-18T04:43:19;102020.25;;;-0.92;90.48
28628;BME280;15815;46.760;19.604;2022-12-18T04:45:45;102024.69;;;-0.96;90.46
28628;BME280;15815;46.760;19.604;2022-12-18T04:48:11;102019.47;;;-0.98;90.44
28628;BME280;15815;46.760;19.604;2022-12-18T04:50:36;102034.34;;;-0.94;90.44
28628;BME280;15815;46.760;19.604;2022-12-18T04:53:02;102033.81;;;-0.96;90.63
28628;BME280;15815;46.760;19.604;2022-12-18T04:55:27;102039.59;;;-0.97;90.62
28628;BME280;15815;46.760;19.604;2022-12-18T04:57:53;102050.94;;;-0.99;90.16
28628;BME280;15815;46.760;19.604;2022-12-18T05:00:19;102036.38;;;-1.09;91.06
28628;BME280;15815;46.760;19.604;2022-12-18T05:02:45;102042.16;;;-1.11;91.22
28628;BME280;15815;46.760;19.604;2022-12-18T05:05:10;102052.63;;;-1.03;90.97
28628;BME280;15815;46.760;19.604;2022-12-18T05:07:36;102068.06;;;-1.02;91.02
28628;BME280;15815;46.760;19.604;2022-12-18T05:10:02;102046.31;;;-1.13;91.17
28628;BME280;15815;46.760;19.604;2022-12-18T05:12:28;102065.38;;;-1.17;90.71
28628;BME280;15815;46.760;19.604;2022-12-18T05:14:53;102055.41;;;-1.13;91.13
28628;BME280;15815;46.760;19.604;2022-12-18T05:17:18;102066.44;;;-1.13;90.88
28628;BME280;15815;46.760;19.604;2022-12-18T05:19:44;102058.22;;;-1.23;90.74
28628;BME280;15815;46.760;19.604;2022-12-18T05:22:09;102071.22;;;-1.23;90.60
28628;BME280;15815;46.760;19.604;2022-12-18T05:24:35;102069.88;;;-1.36;89.95
28628;BME280;15815;46.760;19.604;2022-12-18T05:27:01;102075.94;;;-1.39;90.15
28628;BME280;15815;46.760;19.604;2022-12-18T05:29:26;102080.16;;;-1.57;90.62
28628;BME280;15815;46.760;19.604;2022-12-18T05:31:52;102084.31;;;-1.60;90.52
28628;BME280;15815;46.760;19.604;2022-12-18T05:34:18;102069.44;;;-1.79;91.17
28628;BME280;15815;46.760;19.604;2022-12-18T05:36:43;102077.72;;;-1.74;90.55
28628;BME280;15815;46.760;19.604;2022-12-18T05:39:09;102082.13;;;-1.78;90.44
28628;BME280;15815;46.760;19.604;2022-12-18T05:41:34;102098.38;;;-1.76;91.56
28628;BME280;15815;46.760;19.604;2022-12-18T05:44:00;102086.84;;;-1.89;91.12
28628;BME280;15815;46.760;19.604;2022-12-18T05:46:25;102110.00;;;-1.84;91.37
28628;BME280;15815;46.760;19.604;2022-12-18T05:48:51;102108.31;;;-1.96;91.91
28628;BME280;15815;46.760;19.604;2022-12-18T05:51:19;102123.75;;;-1.95;91.69
28628;BME280;15815;46.760;19.604;2022-12-18T05:53:45;102118.00;;;-2.03;90.81
28628;BME280;15815;46.760;19.604;2022-12-18T05:56:18;102117.16;;;-2.04;91.21
28628;BME280;15815;46.760;19.604;2022-12-18T05:58:45;102119.63;;;-2.02;91.07
28628;BME280;15815;46.760;19.604;2022-12-18T06:01:17;102107.78;;;-2.08;91.05
28628;BME280;15815;46.760;19.604;2022-12-18T06:03:43;102124.06;;;-2.11;92.01
28628;BME280;15815;46.760;19.604;2022-12-18T06:06:19;102132.88;;;-2.14;92.08
28628;BME280;15815;46.760;19.604;2022-12-18T06:08:46;102124.59;;;-2.20;91.25
28628;BME280;15815;46.760;19.604;2022-12-18T06:11:11;102122.94;;;-2.26;91.80
28628;BME280;15815;46.760;19.604;2022-12-18T06:13:37;102130.69;;;-2.17;92.09
28628;BME280;15815;46.760;19.604;2022-12-18T06:16:06;102137.53;;;-2.30;91.77
28628;BME280;15815;46.760;19.604;2022-12-18T06:18:32;102138.91;;;-2.23;91.33
28628;BME280;15815;46.760;19.604;2022-12-18T06:20:59;102145.25;;;-2.22;91.38
28628;BME280;15815;46.760;19.604;2022-12-18T06:23:27;102151.03;;;-2.24;91.18
28628;BME280;15815;46.760;19.604;2022-12-18T06:25:53;102123.22;;;-2.32;90.88
28628;BME280;15815;46.760;19.604;2022-12-18T06:28:18;102139.47;;;-2.36;91.26
28628;BME280;15815;46.760;19.604;2022-12-18T06:30:46;102159.28;;;-2.24;90.82
28628;BME280;15815;46.760;19.604;2022-12-18T06:33:11;102146.63;;;-2.30;91.07
28628;BME280;15815;46.760;19.604;2022-12-18T06:35:38;102164.81;;;-2.24;91.40
28628;BME280;15815;46.760;19.604;2022-12-18T06:38:03;102178.06;;;-2.15;91.17
28628;BME280;15815;46.760;19.604;2022-12-18T06:40:29;102174.22;;;-2.14;92.10
28628;BME280;15815;46.760;19.604;2022-12-18T06:42:54;102180.53;;;-2.09;92.05
28628;BME280;15815;46.760;19.604;2022-12-18T06:45:20;102163.72;;;-2.23;91.83
28628;BME280;15815;46.760;19.604;2022-12-18T06:47:45;102176.41;;;-2.11;91.88
28628;BME280;15815;46.760;19.604;2022-12-18T06:50:11;102191.84;;;-2.00;92.30
28628;BME280;15815;46.760;19.604;2022-12-18T06:52:37;102180.00;;;-2.01;92.49
28628;BME280;15815;46.760;19.604;2022-12-18T06:55:04;102194.63;;;-1.85;92.62
28628;BME280;15815;46.760;19.604;2022-12-18T06:57:31;102189.91;;;-1.69;92.25
28628;BME280;15815;46.760;19.604;2022-12-18T06:59:56;102205.59;;;-1.39;91.67
28628;BME280;15815;46.760;19.604;2022-12-18T07:02:22;102212.72;;;-1.13;90.87
28628;BME280;15815;46.760;19.604;2022-12-18T07:04:50;102203.81;;;-0.79;90.52
28628;BME280;15815;46.760;19.604;2022-12-18T07:07:19;102205.16;;;-0.27;89.74
28628;BME280;15815;46.760;19.604;2022-12-18T07:09:44;102212.63;;;0.16;90.07
28628;BME280;15815;46.760;19.604;2022-12-18T07:12:09;102216.78;;;0.48;89.62
28628;BME280;15815;46.760;19.604;2022-12-18T07:14:35;102214.38;;;0.70;89.27
28628;BME280;15815;46.760;19.604;2022-12-18T07:17:03;102232.47;;;1.34;88.88
28628;BME280;15815;46.760;19.604;2022-12-18T07:19:29;102228.78;;;1.63;90.14
28628;BME280;15815;46.760;19.604;2022-12-18T07:21:54;102243.13;;;2.07;90.76
28628;BME280;15815;46.760;19.604;2022-12-18T07:24:21;102244.25;;;2.25;89.94
28628;BME280;15815;46.760;19.604;2022-12-18T07:26:46;102260.03;;;2.62;89.41
28628;BME280;15815;46.760;19.604;2022-12-18T07:29:12;102241.88;;;2.84;88.12
28628;BME280;15815;46.760;19.604;2022-12-18T07:31:38;102245.31;;;3.22;87.02
28628;BME280;15815;46.760;19.604;2022-12-18T07:34:03;102236.03;;;3.54;85.93
28628;BME280;15815;46.760;19.604;2022-12-18T07:36:29;102253.19;;;3.83;84.17
28628;BME280;15815;46.760;19.604;2022-12-18T07:38:54;102264.59;;;4.09;85.94
28628;BME280;15815;46.760;19.604;2022-12-18T07:41:20;102253.50;;;4.54;83.06
28628;BME280;15815;46.760;19.604;2022-12-18T07:43:45;102267.09;;;4.78;86.22
28628;BME280;15815;46.760;19.604;2022-12-18T07:46:12;102279.03;;;5.32;86.78
28628;BME280;15815;46.760;19.604;2022-12-18T07:48:41;102281.91;;;5.49;82.29
28628;BME280;15815;46.760;19.604;2022-12-18T07:51:07;102294.94;;;5.71;85.25
28628;BME280;15815;46.760;19.604;2022-12-18T07:53:34;102287.03;;;6.21;82.51
28628;BME280;15815;46.760;19.604;2022-12-18T07:56:03;102297.56;;;6.41;79.52
28628;BME280;15815;46.760;19.604;2022-12-18T07:58:29;102301.81;;;6.82;81.02
28628;BME280;15815;46.760;19.604;2022-12-18T08:01:06;102310.66;;;7.01;77.29
28628;BME280;15815;46.760;19.604;2022-12-18T08:03:32;102307.00;;;7.09;78.75
28628;BME280;15815;46.760;19.604;2022-12-18T08:05:59;102311.28;;;7.07;76.55
28628;BME280;15815;46.760;19.604;2022-12-18T08:08:25;102313.78;;;7.55;82.41
28628;BME280;15815;46.760;19.604;2022-12-18T08:10:50;102315.91;;;8.17;78.44
28628;BME280;15815;46.760;19.604;2022-12-18T08:13:16;102304.91;;;8.12;81.17
28628;BME280;15815;46.760;19.604;2022-12-18T08:15:41;102315.31;;;8.74;79.51
28628;BME280;15815;46.760;19.604;2022-12-18T08:18:06;102316.06;;;9.04;80.00
28628;BME280;15815;46.760;19.604;2022-12-18T08:20:32;102336.63;;;9.08;74.82
28628;BME280;15815;46.760;19.604;2022-12-18T08:22:57;102334.13;;;8.94;73.92
28628;BME280;15815;46.760;19.604;2022-12-18T08:25:23;102332.75;;;9.46;74.15
28628;BME280;15815;46.760;19.604;2022-12-18T08:27:48;102316.38;;;9.36;68.88
28628;BME280;15815;46.760;19.604;2022-12-18T08:30:14;102321.41;;;9.54;68.37
28628;BME280;15815;46.760;19.604;2022-12-18T08:32:39;102321.41;;;9.54;72.01
28628;BME280;15815;46.760;19.604;2022-12-18T08:35:05;102340.59;;;10.13;71.54
28628;BME280;15815;46.760;19.604;2022-12-18T08:37:31;102338.59;;;10.50;70.88
28628;BME280;15815;46.760;19.604;2022-12-18T08:39:56;102332.53;;;10.12;69.47
28628;BME280;15815;46.760;19.604;2022-12-18T08:42:22;102339.81;;;10.77;69.73
28628;BME280;15815;46.760;19.604;2022-12-18T08:45:06;102356.97;;;11.28;66.45
28628;BME280;15815;46.760;19.604;2022-12-18T08:47:33;102351.84;;;10.90;66.42
28628;BME280;15815;46.760;19.604;2022-12-18T08:49:58;102361.41;;;11.29;63.97
28628;BME280;15815;46.760;19.604;2022-12-18T08:52:23;102337.50;;;10.67;66.38
28628;BME280;15815;46.760;19.604;2022-12-18T08:54:49;102346.81;;;11.55;61.80
28628;BME280;15815;46.760;19.604;2022-12-18T08:57:14;102362.78;;;10.79;58.67
28628;BME280;15815;46.760;19.604;2022-12-18T08:59:40;102351.94;;;10.94;62.85
28628;BME280;15815;46.760;19.604;2022-12-18T09:02:05;102350.50;;;11.87;60.81
28628;BME280;15815;46.760;19.604;2022-12-18T09:04:31;102361.75;;;11.87;58.18
28628;BME280;15815;46.760;19.604;2022-12-18T09:06:56;102366.16;;;12.35;60.19
28628;BME280;15815;46.760;19.604;2022-12-18T09:09:22;102356.72;;;10.65;57.60
28628;BME280;15815;46.760;19.604;2022-12-18T09:11:47;102361.31;;;11.26;59.32
28628;BME280;15815;46.760;19.604;2022-12-18T09:14:13;102374.72;;;11.76;57.10
28628;BME280;15815;46.760;19.604;2022-12-18T09:16:38;102369.69;;;10.42;53.18
28628;BME280;15815;46.760;19.604;2022-12-18T09:19:04;102367.53;;;11.19;55.60
28628;BME280;15815;46.760;19.604;2022-12-18T09:21:32;102368.97;;;12.71;57.84
28628;BME280;15815;46.760;19.604;2022-12-18T09:23:58;102366.16;;;12.71;55.99
28628;BME280;15815;46.760;19.604;2022-12-18T09:26:24;102370.00;;;12.62;57.00
28628;BME280;15815;46.760;19.604;2022-12-18T09:28:51;102366.66;;;11.90;56.47
28628;BME280;15815;46.760;19.604;2022-12-18T09:31:18;102358.63;;;12.24;59.57
28628;BME280;15815;46.760;19.604;2022-12-18T09:33:44;102359.81;;;11.75;54.29
28628;BME280;15815;46.760;19.604;2022-12-18T09:36:12;102374.31;;;11.30;52.87
28628;BME280;15815;46.760;19.604;2022-12-18T09:38:38;102378.25;;;11.13;56.69
28628;BME280;15815;46.760;19.604;2022-12-18T09:43:54;102388.34;;;13.11;55.58
28628;BME280;15815;46.760;19.604;2022-12-18T09:46:33;102387.09;;;13.47;53.54
28628;BME280;15815;46.760;19.604;2022-12-18T09:49:03;102373.00;;;14.19;52.45
28628;BME280;15815;46.760;19.604;2022-12-18T09:54:03;102369.81;;;14.20;56.44
28628;BME280;15815;46.760;19.604;2022-12-18T09:56:35;102377.22;;;12.98;49.38
28628;BME280;15815;46.760;19.604;2022-12-18T09:59:03;102362.56;;;14.23;53.06
28628;BME280;15815;46.760;19.604;2022-12-18T10:01:30;102355.59;;;15.00;54.26
28628;BME280;15815;46.760;19.604;2022-12-18T10:03:56;102357.84;;;12.97;51.54
28628;BME280;15815;46.760;19.604;2022-12-18T10:06:38;102355.59;;;14.17;51.25
28628;BME280;15815;46.760;19.604;2022-12-18T10:09:24;102356.28;;;14.90;46.14
28628;BME280;15815;46.760;19.604;2022-12-18T10:12:13;102358.91;;;14.45;49.84
28628;BME280;15815;46.760;19.604;2022-12-18T10:17:45;102343.88;;;15.75;44.75
28628;BME280;15815;46.760;19.604;2022-12-18T10:20:29;102340.50;;;14.59;49.36
28628;BME280;15815;46.760;19.604;2022-12-18T10:23:15;102346.22;;;15.29;45.96
28628;BME280;15815;46.760;19.604;2022-12-18T10:25:55;102329.50;;;15.58;46.43
28628;BME280;15815;46.760;19.604;2022-12-18T10:28:26;102333.09;;;15.92;49.66
28628;BME280;15815;46.760;19.604;2022-12-18T10:30:52;102328.91;;;16.30;53.03
28628;BME280;15815;46.760;19.604;2022-12-18T10:33:23;102333.00;;;16.39;50.27
28628;BME280;15815;46.760;19.604;2022-12-18T10:35:52;102335.13;;;16.50;50.17
28628;BME280;15815;46.760;19.604;2022-12-18T10:41:46;102333.09;;;15.92;43.96
28628;BME280;15815;46.760;19.604;2022-12-18T10:46:36;102316.59;;;15.23;50.22
28628;BME280;15815;46.760;19.604;2022-12-18T10:49:01;102313.44;;;15.32;48.33
28628;BME280;15815;46.760;19.604;2022-12-18T10:51:31;102325.81;;;15.94;47.12
28628;BME280;15815;46.760;19.604;2022-12-18T10:54:04;102333.47;;;15.50;43.85
28628;BME280;15815;46.760;19.604;2022-12-18T10:56:31;102336.28;;;15.87;45.77
28628;BME280;15815;46.760;19.604;2022-12-18T10:59:04;102333.59;;;16.04;43.68
28628;BME280;15815;46.760;19.604;2022-12-18T11:04:18;102331.19;;;16.10;44.79
28628;BME280;15815;46.760;19.604;2022-12-18T11:06:53;102341.81;;;16.20;40.58
28628;BME280;15815;46.760;19.604;2022-12-18T11:09:22;102334.88;;;15.63;44.14
28628;BME280;15815;46.760;19.604;2022-12-18T11:11:56;102337.91;;;14.23;40.43
28628;BME280;15815;46.760;19.604;2022-12-18T11:14:45;102350.78;;;15.04;44.30
28628;BME280;15815;46.760;19.604;2022-12-18T11:17:28;102351.03;;;15.25;39.35
28628;BME280;15815;46.760;19.604;2022-12-18T11:19:59;102324.69;;;14.54;40.27
28628;BME280;15815;46.760;19.604;2022-12-18T11:22:30;102348.34;;;13.93;44.62
28628;BME280;15815;46.760;19.604;2022-12-18T11:27:37;102362.44;;;13.89;44.64
28628;BME280;15815;46.760;19.604;2022-12-18T11:32:46;102354.03;;;13.70;41.31
28628;BME280;15815;46.760;19.604;2022-12-18T11:35:37;102353.22;;;13.47;42.54
28628;BME280;15815;46.760;19.604;2022-12-18T11:40:40;102359.69;;;13.70;44.83
28628;BME280;15815;46.760;19.604;2022-12-18T11:43:14;102364.28;;;14.28;41.74
28628;BME280;15815;46.760;19.604;2022-12-18T11:45:54;102348.56;;;14.30;41.49
28628;BME280;15815;46.760;19.604;2022-12-18T11:48:27;102347.84;;;14.37;42.04
28628;BME280;15815;46.760;19.604;2022-12-18T11:50:57;102362.03;;;13.91;43.46
28628;BME280;15815;46.760;19.604;2022-12-18T11:53:24;102356.94;;;13.32;42.72
28628;BME280;15815;46.760;19.604;2022-12-18T11:56:00;102366.81;;;13.41;40.70
28628;BME280;15815;46.760;19.604;2022-12-18T12:10:00;102331.31;;;12.82;42.53
28628;BME280;15815;46.760;19.604;2022-12-18T12:18:55;102325.25;;;13.19;46.20
28628;BME280;15815;46.760;19.604;2022-12-18T12:21:28;102321.59;;;12.99;42.75
28628;BME280;15815;46.760;19.604;2022-12-18T12:24:18;102324.69;;;12.55;43.98
28628;BME280;15815;46.760;19.604;2022-12-18T12:27:01;102307.72;;;12.17;44.09
28628;BME280;15815;46.760;19.604;2022-12-18T12:38:10;102321.13;;;11.13;41.97
28628;BME280;15815;46.760;19.604;2022-12-18T12:40:36;102313.50;;;10.98;42.15
28628;BME280;15815;46.760;19.604;2022-12-18T12:43:21;102322.34;;;10.44;43.61
28628;BME280;15815;46.760;19.604;2022-12-18T12:45:54;102312.31;;;9.82;43.57
28628;BME280;15815;46.760;19.604;2022-12-18T12:48:34;102311.47;;;10.30;43.40
28628;BME280;15815;46.760;19.604;2022-12-18T12:51:03;102305.75;;;10.02;43.27
28628;BME280;15815;46.760;19.604;2022-12-18T12:53:36;102324.44;;;9.37;44.31
28628;BME280;15815;46.760;19.604;2022-12-18T12:56:03;102333.72;;;9.05;45.05
28628;BME280;15815;46.760;19.604;2022-12-18T12:58:42;102328.34;;;8.58;45.74
28628;BME280;15815;46.760;19.604;2022-12-18T13:01:32;102350.13;;;8.31;46.51
28628;BME280;15815;46.760;19.604;2022-12-18T13:06:33;102355.75;;;7.93;46.76
28628;BME280;15815;46.760;19.604;2022-12-18T13:09:01;102357.38;;;7.65;47.66
28628;BME280;15815;46.760;19.604;2022-12-18T13:11:43;102352.19;;;7.46;48.03
28628;BME280;15815;46.760;19.604;2022-12-18T13:14:34;102359.31;;;7.09;48.92
28628;BME280;15815;46.760;19.604;2022-12-18T13:17:26;102352.59;;;7.01;49.05
28628;BME280;15815;46.760;19.604;2022-12-18T13:20:09;102362.81;;;6.80;50.01
28628;BME280;15815;46.760;19.604;2022-12-18T13:22:37;102349.00;;;6.75;49.77
28628;BME280;15815;46.760;19.604;2022-12-18T13:25:33;102352.94;;;6.74;50.08
28628;BME280;15815;46.760;19.604;2022-12-18T13:31:02;102358.03;;;6.55;51.54
28628;BME280;15815;46.760;19.604;2022-12-18T13:38:40;102362.91;;;6.06;52.73
28628;BME280;15815;46.760;19.604;2022-12-18T13:43:57;102382.56;;;6.01;52.98
28628;BME280;15815;46.760;19.604;2022-12-18T13:46:48;102387.66;;;5.99;53.68
28628;BME280;15815;46.760;19.604;2022-12-18T13:51:54;102393.41;;;6.02;53.73
28628;BME280;15815;46.760;19.604;2022-12-18T13:54:39;102388.31;;;5.96;54.08
28628;BME280;15815;46.760;19.604;2022-12-18T13:57:34;102386.81;;;5.89;53.08
28628;BME280;15815;46.760;19.604;2022-12-18T14:02:49;102382.91;;;5.68;54.13
28628;BME280;15815;46.760;19.604;2022-12-18T14:05:42;102410.97;;;5.72;55.40
28628;BME280;15815;46.760;19.604;2022-12-18T14:08:16;102418.00;;;5.61;54.90
28628;BME280;15815;46.760;19.604;2022-12-18T14:10:47;102410.34;;;5.44;55.21
28628;BME280;15815;46.760;19.604;2022-12-18T14:13:36;102399.47;;;5.34;54.58
28628;BME280;15815;46.760;19.604;2022-12-18T14:16:04;102405.72;;;5.17;55.50
28628;BME280;15815;46.760;19.604;2022-12-18T14:18:55;102411.38;;;5.03;55.98
28628;BME280;15815;46.760;19.604;2022-12-18T14:21:28;102402.75;;;4.91;55.67
28628;BME280;15815;46.760;19.604;2022-12-18T14:24:16;102411.75;;;4.88;56.65
28628;BME280;15815;46.760;19.604;2022-12-18T14:26:42;102414.97;;;4.81;57.02